New Matamoras, Ohio
Current Conditions -  °F | °C
As of 12:53 PM on Monday 22 Dec 2014 (Local Time) from KPKB Reporting Station
Overcast Overcast  
Wind Chill: 53°   Ceiling: 5000
Heat Index: 53°   Visibility: 10mi
Dew Point: 35°   Wind: 6mph
Humidity: 50%   Direction: 150°SSE
Pressure: 30.02"   Gusts: NA
Location:  39.52°N, 81.07°W
Report Text: KPKB 221753Z 15005KT 10SM OVC050 12/02 A3002 RMK AO2 SLP169 T01170017 10122 21017 58028
Loading
Personal Weather Stations






























Interactive Weather Map New forecast layout! Learn more

10-Day Weather Forecast

Advertisements
Track Severe Weather on mobile